createdAt,value
2018-05-15T00:01:36.607Z,13.97
2018-05-15T00:04:04.089Z,13.87
2018-05-15T00:06:31.576Z,13.80
2018-05-15T00:08:59.061Z,13.77
2018-05-15T00:11:26.530Z,13.67
2018-05-15T00:13:54.035Z,13.54
2018-05-15T00:16:21.510Z,13.38
2018-05-15T00:18:48.998Z,13.31
2018-05-15T00:21:16.474Z,13.27
2018-05-15T00:23:43.955Z,13.11
2018-05-15T00:26:12.086Z,13.14
2018-05-15T00:28:39.569Z,13.07
2018-05-15T00:31:07.042Z,13.04
2018-05-15T00:33:34.530Z,13.08
2018-05-15T00:36:02.004Z,13.03
2018-05-15T00:38:29.496Z,12.99
2018-05-15T00:40:56.957Z,12.94
2018-05-15T00:43:24.444Z,12.94
2018-05-15T00:45:51.912Z,12.85
2018-05-15T00:48:19.392Z,12.75
2018-05-15T00:50:46.865Z,12.68
2018-05-15T00:53:14.362Z,12.69
2018-05-15T00:55:43.751Z,12.68
2018-05-15T00:58:11.267Z,12.66
2018-05-15T01:00:38.749Z,12.68
2018-05-15T01:03:06.236Z,12.65
2018-05-15T01:05:33.701Z,12.49
2018-05-15T01:08:01.190Z,12.43
2018-05-15T01:10:29.507Z,12.34
2018-05-15T01:12:57.000Z,12.32
2018-05-15T01:15:24.462Z,12.33
2018-05-15T01:17:51.965Z,12.31
2018-05-15T01:20:19.434Z,12.33
2018-05-15T01:22:46.902Z,12.37
2018-05-15T01:25:14.388Z,12.35
2018-05-15T01:27:41.850Z,12.22
2018-05-15T01:30:09.337Z,12.25
2018-05-15T01:32:36.806Z,12.24
2018-05-15T01:35:04.290Z,12.17
2018-05-15T01:37:31.751Z,12.15
2018-05-15T01:39:59.233Z,12.09
2018-05-15T01:42:26.694Z,11.99
2018-05-15T01:44:54.191Z,11.86
2018-05-15T01:47:21.678Z,11.81
2018-05-15T01:49:50.111Z,11.77
2018-05-15T01:52:17.618Z,11.80
2018-05-15T01:54:45.114Z,11.73
2018-05-15T01:57:12.629Z,11.71
2018-05-15T01:59:40.117Z,11.70
2018-05-15T02:02:07.582Z,11.63
2018-05-15T02:04:35.065Z,11.49
2018-05-15T02:07:02.536Z,11.47
2018-05-15T02:09:30.034Z,11.59
2018-05-15T02:11:57.498Z,11.51
2018-05-15T02:14:24.983Z,11.48
2018-05-15T02:16:52.455Z,11.43
2018-05-15T02:19:19.978Z,11.26
2018-05-15T02:21:47.442Z,11.27
2018-05-15T02:24:15.082Z,11.35
2018-05-15T02:26:42.558Z,11.43
2018-05-15T02:29:10.046Z,11.43
2018-05-15T02:31:37.521Z,11.43
2018-05-15T02:34:05.010Z,11.38
2018-05-15T02:36:32.478Z,11.30
2018-05-15T02:38:59.964Z,11.30
2018-05-15T02:41:27.426Z,11.25
2018-05-15T02:43:54.907Z,11.13
2018-05-15T02:46:22.430Z,11.00
2018-05-15T02:48:49.902Z,10.90
2018-05-15T02:51:17.393Z,10.96
2018-05-15T02:53:44.858Z,10.95
2018-05-15T02:56:12.346Z,10.98
2018-05-15T02:58:39.809Z,10.97
2018-05-15T03:01:07.294Z,10.83
2018-05-15T03:03:34.788Z,10.82
2018-05-15T03:06:02.282Z,10.97
2018-05-15T03:08:29.745Z,10.94
2018-05-15T03:10:57.232Z,10.90
2018-05-15T03:13:24.796Z,10.83
2018-05-15T03:15:52.282Z,10.75
2018-05-15T03:18:19.764Z,10.82
2018-05-15T03:20:47.271Z,10.76
2018-05-15T03:23:14.740Z,10.69
2018-05-15T03:25:42.230Z,10.61
2018-05-15T03:28:09.702Z,10.56
2018-05-15T03:30:37.189Z,10.58
2018-05-15T03:33:04.665Z,10.60
2018-05-15T03:35:32.149Z,10.70
2018-05-15T03:37:59.626Z,10.85
2018-05-15T03:40:27.125Z,10.83
2018-05-15T03:42:54.624Z,10.86
2018-05-15T03:45:22.125Z,10.83
2018-05-15T03:47:49.603Z,10.86
2018-05-15T03:50:17.097Z,10.84
2018-05-15T03:52:44.575Z,10.80
2018-05-15T03:55:12.075Z,10.72
2018-05-15T03:57:39.554Z,10.71
2018-05-15T04:03:12.733Z,10.49
2018-05-15T04:05:51.838Z,10.41
2018-05-15T04:08:19.320Z,10.30
2018-05-15T04:10:46.878Z,10.11
2018-05-15T04:13:14.309Z,10.03
2018-05-15T04:15:43.878Z,10.04
2018-05-15T04:18:11.358Z,10.13
2018-05-15T04:20:38.868Z,10.17
2018-05-15T04:23:06.371Z,10.28
2018-05-15T04:25:33.967Z,10.33
2018-05-15T04:28:01.457Z,10.60
2018-05-15T04:30:28.982Z,10.73
2018-05-15T04:32:56.466Z,10.89
2018-05-15T04:35:23.958Z,10.85
2018-05-15T04:37:51.456Z,11.03
2018-05-15T04:40:18.937Z,11.15
2018-05-15T04:42:46.449Z,11.30
2018-05-15T04:45:13.923Z,11.34
2018-05-15T04:47:41.433Z,11.47
2018-05-15T04:50:08.910Z,11.27
2018-05-15T04:52:36.410Z,11.33
2018-05-15T04:55:07.658Z,11.30
2018-05-15T04:57:35.159Z,11.32
2018-05-15T05:00:02.636Z,11.42
2018-05-15T05:02:30.134Z,11.41
2018-05-15T05:04:57.620Z,11.59
2018-05-15T05:07:25.134Z,11.73
2018-05-15T05:09:52.610Z,11.77
2018-05-15T05:12:20.102Z,11.96
2018-05-15T05:14:47.569Z,12.09
2018-05-15T05:17:15.070Z,12.12
2018-05-15T05:19:42.541Z,12.30
2018-05-15T05:22:10.039Z,12.41
2018-05-15T05:24:38.025Z,12.13
2018-05-15T05:27:05.555Z,12.21
2018-05-15T05:29:33.014Z,12.29
2018-05-15T05:32:00.533Z,12.43
2018-05-15T05:34:28.008Z,12.65
2018-05-15T05:36:55.506Z,12.73
2018-05-15T05:39:22.993Z,12.56
2018-05-15T05:41:50.482Z,12.71
2018-05-15T05:44:17.974Z,12.51
2018-05-15T05:46:45.461Z,12.82
2018-05-15T05:49:12.930Z,12.83
2018-05-15T05:51:40.472Z,12.68
2018-05-15T05:54:07.944Z,12.74
2018-05-15T05:56:35.446Z,12.78
2018-05-15T05:59:02.922Z,12.52
2018-05-15T06:01:30.418Z,12.49
2018-05-15T06:03:57.910Z,12.82
2018-05-15T06:06:25.382Z,12.67
2018-05-15T06:08:53.321Z,13.01
2018-05-15T06:11:20.797Z,13.03
2018-05-15T06:13:48.302Z,12.95
2018-05-15T06:16:15.781Z,13.01
2018-05-15T06:18:43.277Z,13.13
2018-05-15T06:21:10.745Z,13.36
2018-05-15T06:23:38.246Z,13.55
2018-05-15T06:26:05.713Z,13.64
2018-05-15T06:28:33.206Z,13.66
2018-05-15T06:31:00.675Z,13.26
2018-05-15T06:33:28.165Z,13.35
2018-05-15T06:35:55.645Z,13.76
2018-05-15T06:38:23.130Z,13.92
2018-05-15T06:40:50.604Z,13.12
2018-05-15T06:43:18.177Z,13.57
2018-05-15T06:45:45.653Z,13.40
2018-05-15T06:48:13.147Z,13.34
2018-05-15T06:50:40.626Z,13.53
2018-05-15T06:53:13.829Z,13.34
2018-05-15T06:55:41.302Z,13.36
2018-05-15T06:58:08.815Z,13.08
2018-05-15T07:00:36.286Z,13.31
2018-05-15T07:03:03.791Z,13.50
2018-05-15T07:05:31.262Z,13.37
2018-05-15T07:07:58.753Z,13.35
2018-05-15T07:10:26.234Z,13.72
2018-05-15T07:12:53.743Z,13.84
2018-05-15T07:15:21.234Z,14.14
2018-05-15T07:17:48.730Z,14.25
2018-05-15T07:20:16.423Z,14.21
2018-05-15T07:22:43.920Z,14.01
2018-05-15T07:25:11.390Z,14.61
2018-05-15T07:27:38.901Z,14.59
2018-05-15T07:30:06.381Z,14.53
2018-05-15T07:32:33.851Z,14.37
2018-05-15T07:35:01.346Z,14.88
2018-05-15T07:37:28.847Z,15.41
2018-05-15T07:39:56.334Z,15.48
2018-05-15T07:42:23.805Z,16.18
2018-05-15T07:44:51.301Z,15.82
2018-05-15T07:47:18.768Z,15.54
2018-05-15T07:49:46.269Z,16.52
2018-05-15T07:52:13.744Z,16.67
2018-05-15T07:54:41.233Z,16.44
2018-05-15T07:57:08.720Z,16.57
2018-05-15T07:59:36.220Z,16.10
2018-05-15T08:02:03.695Z,17.13
2018-05-15T08:04:31.196Z,17.80
2018-05-15T08:06:58.665Z,17.86
2018-05-15T08:09:26.148Z,17.97
2018-05-15T08:11:53.623Z,17.96
2018-05-15T08:14:21.116Z,18.31
2018-05-15T08:16:48.587Z,18.87
2018-05-15T08:19:16.078Z,17.84
2018-05-15T08:21:43.555Z,18.57
2018-05-15T08:24:11.886Z,18.71
2018-05-15T08:26:39.370Z,19.00
2018-05-15T08:29:06.894Z,19.60
2018-05-15T08:31:34.562Z,19.87
2018-05-15T08:34:02.083Z,19.80
2018-05-15T08:36:29.593Z,19.75
2018-05-15T08:38:57.138Z,19.82
2018-05-15T08:41:25.083Z,20.11
2018-05-15T08:43:52.558Z,19.96
2018-05-15T08:46:20.023Z,20.09
2018-05-15T08:48:47.982Z,20.34
2018-05-15T08:51:16.482Z,20.46
2018-05-15T08:53:44.462Z,20.78
2018-05-15T08:56:12.096Z,20.56
2018-05-15T08:58:39.598Z,20.30
2018-05-15T09:01:07.381Z,20.62
2018-05-15T09:03:34.889Z,20.66
2018-05-15T09:06:03.194Z,20.60
2018-05-15T09:08:31.002Z,20.51
2018-05-15T09:10:59.281Z,20.80
2018-05-15T09:13:26.762Z,20.90
2018-05-15T09:15:54.765Z,20.84
2018-05-15T09:18:22.572Z,20.87
2018-05-15T09:20:50.066Z,21.06
2018-05-15T09:23:17.618Z,21.18
2018-05-15T09:25:45.528Z,21.18
2018-05-15T09:28:13.035Z,21.37
2018-05-15T09:30:40.593Z,21.28
2018-05-15T09:33:08.058Z,21.19
2018-05-15T09:35:35.569Z,21.29
2018-05-15T09:38:03.410Z,21.06
2018-05-15T09:40:31.123Z,21.03
2018-05-15T09:42:58.644Z,21.04
2018-05-15T09:45:26.199Z,21.23
2018-05-15T09:47:53.913Z,21.25
2018-05-15T09:50:21.397Z,21.11
2018-05-15T09:52:49.121Z,20.91
2018-05-15T09:55:17.084Z,20.94
2018-05-15T09:57:44.667Z,21.06
2018-05-15T10:00:13.177Z,21.07
2018-05-15T10:02:41.573Z,21.25
2018-05-15T10:05:09.462Z,21.32
2018-05-15T10:07:37.217Z,21.34
2018-05-15T10:10:04.677Z,21.24
2018-05-15T10:12:32.178Z,21.61
2018-05-15T10:14:59.698Z,21.83
2018-05-15T10:17:27.605Z,21.87
2018-05-15T10:19:55.235Z,21.40
2018-05-15T10:22:22.718Z,21.56
2018-05-15T10:24:50.203Z,21.77
2018-05-15T10:27:17.683Z,21.62
2018-05-15T10:29:45.202Z,21.89
2018-05-15T10:32:12.759Z,21.89
2018-05-15T10:34:40.227Z,21.72
2018-05-15T10:37:07.710Z,22.07
2018-05-15T10:39:35.197Z,22.37
2018-05-15T10:42:02.958Z,22.12
2018-05-15T10:44:30.418Z,22.14
2018-05-15T10:46:57.911Z,22.20
2018-05-15T10:49:25.815Z,22.57
2018-05-15T10:51:53.574Z,22.72
2018-05-15T10:54:21.786Z,22.21
2018-05-15T10:56:49.299Z,22.35
2018-05-15T10:59:16.987Z,22.47
2018-05-15T11:01:44.517Z,22.51
2018-05-15T11:04:12.035Z,22.37
2018-05-15T11:06:39.771Z,22.10
2018-05-15T11:09:07.370Z,22.37
2018-05-15T11:11:35.213Z,22.26
2018-05-15T11:14:03.417Z,22.16
2018-05-15T11:16:30.894Z,22.30
2018-05-15T11:18:58.358Z,22.46
2018-05-15T11:21:37.965Z,22.49
2018-05-15T11:27:08.218Z,22.94
2018-05-15T11:29:35.685Z,23.29
2018-05-15T11:32:03.178Z,23.16
2018-05-15T11:34:30.650Z,23.35
2018-05-15T11:36:58.135Z,23.38
2018-05-15T11:39:25.594Z,22.99
2018-05-15T11:41:53.161Z,23.30
2018-05-15T11:44:20.570Z,23.92
2018-05-15T11:46:48.056Z,24.08
2018-05-15T11:49:16.189Z,23.83
2018-05-15T11:51:43.722Z,23.69
2018-05-15T11:54:10.502Z,23.29
2018-05-15T11:56:37.977Z,23.00
2018-05-15T11:59:05.450Z,23.45
2018-05-15T12:01:32.946Z,23.92
2018-05-15T12:04:00.471Z,24.34
2018-05-15T12:06:27.954Z,24.66
2018-05-15T12:08:55.378Z,24.72
2018-05-15T12:11:22.874Z,24.83
2018-05-15T12:13:50.330Z,24.51
2018-05-15T12:16:17.817Z,23.90
2018-05-15T12:18:45.303Z,23.44
2018-05-15T12:21:12.815Z,23.86
2018-05-15T12:23:40.296Z,23.73
2018-05-15T12:26:07.762Z,23.78
2018-05-15T12:28:35.261Z,24.04
2018-05-15T12:31:02.722Z,25.05
2018-05-15T12:33:30.206Z,25.08
2018-05-15T12:35:57.669Z,25.49
2018-05-15T12:38:25.155Z,26.09
2018-05-15T12:40:52.626Z,26.94
2018-05-15T12:43:20.108Z,27.26
2018-05-15T12:45:47.574Z,26.75
2018-05-15T12:48:15.079Z,26.26
2018-05-15T12:50:42.553Z,25.35
2018-05-15T12:53:10.038Z,25.17
2018-05-15T12:55:37.502Z,26.06
2018-05-15T12:58:04.979Z,26.73
2018-05-15T13:00:32.434Z,28.00
2018-05-15T13:03:00.405Z,28.95
2018-05-15T13:05:27.876Z,28.83
2018-05-15T13:07:55.362Z,28.27
2018-05-15T13:10:22.818Z,27.66
2018-05-15T13:12:50.303Z,26.37
2018-05-15T13:15:17.997Z,26.19
2018-05-15T13:17:45.478Z,28.30
2018-05-15T13:20:12.987Z,30.16
2018-05-15T13:22:40.470Z,31.42
2018-05-15T13:25:07.936Z,30.27
2018-05-15T13:27:35.425Z,29.27
2018-05-15T13:30:02.895Z,28.99
2018-05-15T13:32:30.389Z,28.32
2018-05-15T13:34:57.853Z,28.13
2018-05-15T13:37:25.334Z,28.41
2018-05-15T13:39:52.785Z,28.44
2018-05-15T13:42:20.334Z,29.44
2018-05-15T13:44:47.825Z,31.35
2018-05-15T13:47:15.294Z,33.47
2018-05-15T13:49:42.774Z,34.63
2018-05-15T13:52:10.229Z,34.54
2018-05-15T13:54:37.705Z,32.51
2018-05-15T13:57:05.163Z,30.99
2018-05-15T13:59:32.633Z,30.03
2018-05-15T14:02:00.093Z,28.63
2018-05-15T14:04:27.576Z,28.22
2018-05-15T14:06:55.040Z,26.47
2018-05-15T14:09:22.647Z,25.99
2018-05-15T14:11:50.119Z,25.51
2018-05-15T14:14:17.589Z,25.30
2018-05-15T14:16:45.053Z,24.80
2018-05-15T14:19:12.541Z,24.90
2018-05-15T14:21:40.029Z,27.27
2018-05-15T14:24:07.514Z,29.23
2018-05-15T14:26:34.986Z,30.17
2018-05-15T14:29:02.466Z,30.80
2018-05-15T14:31:30.000Z,31.54
2018-05-15T14:33:57.414Z,32.16
2018-05-15T14:36:24.879Z,32.15
2018-05-15T14:38:52.370Z,33.08
2018-05-15T14:41:31.839Z,33.58
2018-05-15T14:43:59.322Z,33.08
2018-05-15T14:46:26.887Z,33.85
2018-05-15T14:48:54.362Z,34.37
2018-05-15T14:51:37.009Z,34.04
2018-05-15T14:54:06.227Z,35.51
2018-05-15T14:56:33.686Z,36.30
2018-05-15T14:59:01.166Z,35.81
2018-05-15T15:01:28.621Z,35.94
2018-05-15T15:03:56.380Z,34.88
2018-05-15T15:06:23.843Z,33.63
2018-05-15T15:08:51.333Z,33.38
2018-05-15T15:11:18.795Z,32.23
2018-05-15T15:13:46.310Z,30.11
2018-05-15T15:16:13.781Z,31.94
2018-05-15T15:18:41.256Z,32.86
2018-05-15T15:21:09.067Z,32.42
2018-05-15T15:23:37.460Z,32.60
2018-05-15T15:26:04.914Z,33.30
2018-05-15T15:28:32.374Z,35.82
2018-05-15T15:30:59.849Z,32.55
2018-05-15T15:33:28.209Z,33.09
2018-05-15T15:35:56.056Z,32.74
2018-05-15T15:38:23.515Z,32.33
2018-05-15T15:40:51.007Z,32.43
2018-05-15T15:43:18.471Z,30.88
2018-05-15T15:45:45.955Z,27.97
2018-05-15T15:48:13.423Z,26.63
2018-05-15T15:50:41.125Z,26.20
2018-05-15T15:53:09.527Z,25.45
2018-05-15T15:55:37.005Z,24.98
2018-05-15T15:58:04.511Z,24.69
2018-05-15T16:00:32.989Z,24.18
2018-05-15T16:03:00.461Z,23.99
2018-05-15T16:05:28.350Z,23.95
2018-05-15T16:07:56.126Z,24.07
2018-05-15T16:10:24.309Z,23.69
2018-05-15T16:12:52.229Z,23.85
2018-05-15T16:15:19.713Z,23.86
2018-05-15T16:17:47.224Z,24.20
2018-05-15T16:20:14.744Z,24.30
2018-05-15T16:22:43.225Z,26.57
2018-05-15T16:25:10.746Z,28.58
2018-05-15T16:27:38.207Z,31.37
2018-05-15T16:30:05.738Z,32.77
2018-05-15T16:32:33.207Z,33.35
2018-05-15T16:35:00.991Z,33.34
2018-05-15T16:37:28.698Z,31.88
2018-05-15T16:39:56.616Z,30.78
2018-05-15T16:42:24.342Z,28.67
2018-05-15T16:44:53.909Z,28.00
2018-05-15T16:47:23.039Z,27.54
2018-05-15T16:49:50.511Z,26.84
2018-05-15T16:52:18.270Z,25.74
2018-05-15T16:54:45.777Z,25.12
2018-05-15T16:57:13.333Z,24.78
2018-05-15T16:59:40.821Z,24.39
2018-05-15T17:02:08.557Z,24.34
2018-05-15T17:04:37.059Z,24.30
2018-05-15T17:07:04.538Z,24.32
2018-05-15T17:09:32.225Z,24.26
2018-05-15T17:11:59.787Z,24.71
2018-05-15T17:14:28.434Z,24.81
2018-05-15T17:16:55.932Z,24.89
2018-05-15T17:19:23.732Z,24.68
2018-05-15T17:21:51.225Z,24.85
2018-05-15T17:24:18.725Z,24.42
2018-05-15T17:26:46.599Z,24.11
2018-05-15T17:29:14.469Z,24.00
2018-05-15T17:31:41.969Z,23.86
2018-05-15T17:34:09.490Z,23.84
2018-05-15T17:36:37.479Z,23.87
2018-05-15T17:39:04.976Z,23.97
2018-05-15T17:41:32.751Z,23.90
2018-05-15T17:44:00.240Z,24.05
2018-05-15T17:46:28.055Z,23.87
2018-05-15T17:48:55.566Z,23.93
2018-05-15T17:51:23.482Z,23.78
2018-05-15T17:53:51.251Z,23.66
2018-05-15T17:56:19.033Z,23.61
2018-05-15T17:58:46.609Z,23.92
2018-05-15T18:01:14.114Z,24.06
2018-05-15T18:03:41.602Z,24.44
2018-05-15T18:06:09.141Z,25.12
2018-05-15T18:08:37.049Z,25.29
2018-05-15T18:11:05.059Z,25.53
2018-05-15T18:13:32.858Z,25.50
2018-05-15T18:16:00.660Z,24.57
2018-05-15T18:18:28.138Z,24.00
2018-05-15T18:20:55.625Z,23.41
2018-05-15T18:23:23.163Z,23.11
2018-05-15T18:25:50.650Z,22.91
2018-05-15T18:28:18.209Z,22.70
2018-05-15T18:30:45.958Z,22.59
2018-05-15T18:33:13.506Z,22.32
2018-05-15T18:35:41.170Z,22.34
2018-05-15T18:38:08.926Z,22.47
2018-05-15T18:40:36.606Z,22.20
2018-05-15T18:43:04.094Z,22.01
2018-05-15T18:45:31.636Z,21.63
2018-05-15T18:47:59.095Z,21.69
2018-05-15T18:50:26.858Z,21.66
2018-05-15T18:52:54.393Z,21.62
2018-05-15T18:55:21.887Z,21.40
2018-05-15T18:57:49.966Z,21.30
2018-05-15T19:00:17.885Z,21.19
2018-05-15T19:02:45.858Z,21.10
2018-05-15T19:05:13.343Z,20.93
2018-05-15T19:07:40.825Z,20.80
2018-05-15T19:10:08.793Z,20.75
2018-05-15T19:12:36.705Z,20.64
2018-05-15T19:15:05.410Z,20.48
2018-05-15T19:17:33.010Z,20.44
2018-05-15T19:20:00.513Z,20.30
2018-05-15T19:22:28.446Z,20.24
2018-05-15T19:24:55.934Z,20.13
2018-05-15T19:27:23.730Z,20.07
2018-05-15T19:29:51.277Z,19.99
2018-05-15T19:32:18.758Z,19.95
2018-05-15T19:34:51.770Z,19.95
2018-05-15T19:37:19.487Z,19.82
2018-05-15T19:39:47.026Z,19.83
2018-05-15T19:42:14.867Z,19.76
2018-05-15T19:44:42.783Z,19.61
2018-05-15T19:47:10.671Z,19.49
2018-05-15T19:49:38.150Z,19.42
2018-05-15T19:52:05.870Z,19.35
2018-05-15T19:54:33.345Z,19.51
2018-05-15T19:57:01.282Z,19.90
2018-05-15T19:59:28.753Z,19.62
2018-05-15T20:01:56.774Z,19.44
2018-05-15T20:04:24.869Z,19.38
2018-05-15T20:06:52.330Z,19.08
2018-05-15T20:09:19.821Z,19.01
2018-05-15T20:11:47.522Z,18.68
2018-05-15T20:14:15.000Z,18.70
2018-05-15T20:16:42.469Z,18.54
2018-05-15T20:19:09.949Z,18.04
2018-05-15T20:21:37.435Z,17.78
2018-05-15T20:24:04.923Z,17.89
2018-05-15T20:26:32.382Z,18.13
2018-05-15T20:28:59.860Z,17.93
2018-05-15T20:31:27.334Z,17.75
2018-05-15T20:33:54.821Z,17.73
2018-05-15T20:36:22.278Z,17.53
2018-05-15T20:38:50.547Z,17.53
2018-05-15T20:41:18.019Z,17.47
2018-05-15T20:43:45.510Z,17.48
2018-05-15T20:46:12.966Z,17.26
2018-05-15T20:48:40.453Z,17.21
2018-05-15T20:51:07.911Z,17.13
2018-05-15T20:53:35.390Z,16.95
2018-05-15T20:56:02.850Z,16.81
2018-05-15T20:58:30.405Z,16.81
2018-05-15T21:00:57.822Z,16.79
2018-05-15T21:03:25.303Z,16.80
2018-05-15T21:05:52.761Z,16.78
2018-05-15T21:08:20.291Z,16.60
2018-05-15T21:10:47.758Z,16.54
2018-05-15T21:13:15.225Z,16.50
2018-05-15T21:15:42.717Z,16.40
2018-05-15T21:18:10.177Z,16.42
2018-05-15T21:20:37.645Z,16.45
2018-05-15T21:23:05.117Z,16.47
2018-05-15T21:25:32.598Z,16.39
2018-05-15T21:28:00.063Z,16.17
2018-05-15T21:30:27.545Z,16.13
2018-05-15T21:32:55.035Z,16.23
2018-05-15T21:35:22.526Z,16.32
2018-05-15T21:37:50.518Z,16.17
2018-05-15T21:40:18.079Z,16.03
2018-05-15T21:42:45.542Z,15.89
2018-05-15T21:45:13.013Z,15.67
2018-05-15T21:47:40.474Z,15.61
2018-05-15T21:50:07.950Z,15.39
2018-05-15T21:52:35.504Z,15.49
2018-05-15T21:55:03.005Z,15.51
2018-05-15T21:57:30.476Z,15.44
2018-05-15T21:59:58.689Z,15.31
2018-05-15T22:02:26.153Z,15.34
2018-05-15T22:04:54.743Z,15.43
2018-05-15T22:07:22.205Z,15.45
2018-05-15T22:09:49.694Z,15.46
2018-05-15T22:12:29.006Z,15.42
2018-05-15T22:15:08.265Z,15.48
2018-05-15T22:17:47.519Z,15.38
2018-05-15T22:20:26.725Z,15.32
2018-05-15T22:22:54.557Z,15.37
2018-05-15T22:25:22.053Z,15.27
2018-05-15T22:27:50.481Z,15.26
2018-05-15T22:30:17.978Z,15.29
2018-05-15T22:32:45.466Z,15.33
2018-05-15T22:35:12.946Z,15.32
2018-05-15T22:37:40.413Z,15.40
2018-05-15T22:40:07.897Z,15.51
2018-05-15T22:42:35.371Z,15.53
2018-05-15T22:45:02.851Z,15.49
2018-05-15T22:47:30.333Z,15.45
2018-05-15T22:49:57.801Z,15.52
2018-05-15T22:52:25.294Z,15.60
2018-05-15T22:54:52.766Z,15.57
2018-05-15T22:57:20.261Z,15.50
2018-05-15T22:59:47.734Z,15.45
2018-05-15T23:02:15.231Z,15.49
2018-05-15T23:04:42.706Z,15.47
2018-05-15T23:07:10.193Z,15.40
2018-05-15T23:09:37.662Z,15.40
2018-05-15T23:12:05.154Z,15.29
2018-05-15T23:14:32.615Z,15.20
2018-05-15T23:17:01.566Z,15.15
2018-05-15T23:19:29.034Z,15.12
2018-05-15T23:21:56.525Z,15.01
2018-05-15T23:24:23.986Z,14.99
2018-05-15T23:26:51.514Z,14.99
2018-05-15T23:29:19.095Z,14.96
2018-05-15T23:31:46.566Z,15.00
2018-05-15T23:34:14.033Z,15.00
2018-05-15T23:36:41.536Z,15.02
2018-05-15T23:39:09.007Z,14.97
2018-05-15T23:41:36.489Z,14.99
2018-05-15T23:44:03.959Z,15.06
2018-05-15T23:46:31.450Z,15.07
2018-05-15T23:48:58.921Z,15.08
2018-05-15T23:51:26.403Z,15.12
2018-05-15T23:53:53.865Z,15.06
2018-05-15T23:56:21.349Z,15.16
2018-05-15T23:58:48.819Z,15.02
